Time;durP1;ratioP1;P1;durP2;ratioP2;P2;SDS_P1;SDS_P2;PMS_P1;PMS_P2;Temp;Humidity;BMP_temperature;BMP_pressure;BME280_temperature;BME280_humidity;BME280_pressure;Samples;Min_cycle;Max_cycle;Signal;HPM_P1;HPM_P2
2021/07/03 00:00:20;;;;;;;14.05;12.63;;;16.90;99.90;;;;;;2090309;28;20025;-69
2021/07/03 00:01:21;;;;;;;14.52;12.98;;;16.90;99.90;;;;;;2089909;28;20029;-69
2021/07/03 00:02:21;;;;;;;13.27;11.88;;;16.90;99.90;;;;;;2089568;28;20483;-69
2021/07/03 00:03:22;;;;;;;14.43;11.38;;;16.90;99.90;;;;;;2090023;28;20032;-70
2021/07/03 00:04:24;;;;;;;12.68;11.48;;;16.80;99.90;;;;;;2090449;28;20043;-69
2021/07/03 00:05:24;;;;;;;12.68;11.38;;;16.80;99.90;;;;;;2089272;28;20021;-69
2021/07/03 00:06:25;;;;;;;13.00;11.65;;;16.80;99.90;;;;;;2089854;28;20033;-69
2021/07/03 00:07:25;;;;;;;12.40;11.00;;;16.80;99.90;;;;;;2089821;28;20410;-69
2021/07/03 00:08:28;;;;;;;12.50;11.20;;;16.80;99.90;;;;;;2089075;28;20108;-69
2021/07/03 00:09:28;;;;;;;13.43;11.57;;;16.80;99.90;;;;;;2089862;28;20033;-69
2021/07/03 00:10:29;;;;;;;13.50;12.18;;;16.80;99.90;;;;;;2090253;28;20025;-69
2021/07/03 00:11:29;;;;;;;13.55;12.18;;;16.80;99.90;;;;;;2089325;28;20082;-69
2021/07/03 00:12:30;;;;;;;12.75;11.50;;;16.70;99.90;;;;;;2089951;28;20029;-69
2021/07/03 00:13:31;;;;;;;14.43;12.45;;;16.80;99.90;;;;;;2090021;28;20056;-70
2021/07/03 00:14:32;;;;;;;12.63;10.82;;;16.70;99.90;;;;;;2090245;28;20036;-69
2021/07/03 00:15:33;;;;;;;13.35;11.95;;;16.70;99.90;;;;;;2089894;28;20525;-69
2021/07/03 00:16:34;;;;;;;12.18;10.98;;;16.70;99.90;;;;;;2090204;28;20430;-69
2021/07/03 00:17:35;;;;;;;13.30;11.88;;;16.70;99.90;;;;;;2089722;28;20108;-69
2021/07/03 00:18:36;;;;;;;12.30;11.15;;;16.70;99.90;;;;;;2090148;28;20021;-69
2021/07/03 00:19:36;;;;;;;18.23;12.80;;;16.70;99.90;;;;;;2089960;28;20021;-69
2021/07/03 00:20:37;;;;;;;11.30;10.15;;;16.70;99.90;;;;;;2090126;28;20048;-69
2021/07/03 00:21:37;;;;;;;11.68;10.48;;;16.70;99.90;;;;;;2089204;28;20025;-70
2021/07/03 00:22:38;;;;;;;12.25;10.88;;;16.70;99.90;;;;;;2097736;28;20066;-69
2021/07/03 00:23:39;;;;;;;12.20;10.98;;;16.60;99.90;;;;;;2097355;28;20024;-69
2021/07/03 00:24:39;;;;;;;12.02;10.82;;;16.70;99.90;;;;;;2090057;28;20037;-69
2021/07/03 00:25:40;;;;;;;12.60;11.18;;;16.70;99.90;;;;;;2089954;28;20451;-69
2021/07/03 00:26:41;;;;;;;14.13;11.63;;;16.60;99.90;;;;;;2089161;28;20515;-69
2021/07/03 00:27:42;;;;;;;11.63;10.52;;;16.70;99.90;;;;;;2089171;28;20017;-70
2021/07/03 00:28:42;;;;;;;13.93;12.48;;;16.60;99.90;;;;;;2090012;28;20025;-69
2021/07/03 00:29:43;;;;;;;16.80;11.73;;;16.60;99.90;;;;;;2089737;28;20052;-70
2021/07/03 00:30:43;;;;;;;14.05;12.63;;;16.60;99.90;;;;;;2089833;28;20486;-69
2021/07/03 00:31:47;;;;;;;15.63;13.52;;;16.60;99.90;;;;;;2089279;28;20048;-69
2021/07/03 00:32:48;;;;;;;13.98;12.55;;;16.60;99.90;;;;;;2089894;28;20033;-69
2021/07/03 00:33:49;;;;;;;13.02;11.57;;;16.60;99.90;;;;;;2090024;28;20021;-69
2021/07/03 00:34:50;;;;;;;11.90;10.70;;;16.60;99.90;;;;;;2089872;28;20026;-70
2021/07/03 00:35:50;;;;;;;15.48;12.52;;;16.60;99.90;;;;;;2089391;28;20039;-70
2021/07/03 00:36:51;;;;;;;12.50;10.85;;;16.60;99.90;;;;;;2090079;28;20038;-70
2021/07/03 00:37:51;;;;;;;13.68;12.30;;;16.50;99.90;;;;;;2090078;28;20017;-70
2021/07/03 00:38:52;;;;;;;13.77;12.40;;;16.50;99.90;;;;;;2089761;28;20034;-70
2021/07/03 00:39:53;;;;;;;15.07;13.50;;;16.50;99.90;;;;;;2089951;28;20059;-69
2021/07/03 00:40:53;;;;;;;16.45;13.48;;;16.50;99.90;;;;;;2089609;28;20100;-69
2021/07/03 00:41:54;;;;;;;15.35;13.15;;;16.50;99.90;;;;;;2089266;28;20032;-69
2021/07/03 00:42:55;;;;;;;16.33;13.98;;;16.50;99.90;;;;;;2097298;28;20094;-70
2021/07/03 00:43:56;;;;;;;14.15;12.73;;;16.50;99.90;;;;;;2097410;28;20035;-70
2021/07/03 00:44:57;;;;;;;14.27;11.95;;;16.50;99.90;;;;;;2089812;28;20024;-70
2021/07/03 00:45:57;;;;;;;14.23;12.65;;;16.50;99.90;;;;;;2089816;28;20025;-70
2021/07/03 00:47:02;;;;;;;11.65;10.20;;;16.40;99.90;;;;;;2089945;28;20468;-70
2021/07/03 00:48:03;;;;;;;13.25;11.95;;;16.40;99.90;;;;;;2089863;28;20025;-69
2021/07/03 00:49:04;;;;;;;14.00;12.63;;;16.40;99.90;;;;;;2089570;28;20025;-69
2021/07/03 00:50:09;;;;;;;13.32;12.00;;;16.40;99.90;;;;;;2089673;28;20079;-70
2021/07/03 00:51:09;;;;;;;17.38;13.68;;;16.40;99.90;;;;;;2089662;28;20429;-69
2021/07/03 00:52:10;;;;;;;18.50;13.68;;;16.40;99.90;;;;;;2089336;28;20029;-70
2021/07/03 00:53:11;;;;;;;14.25;12.73;;;16.40;99.90;;;;;;2097094;28;20029;-70
2021/07/03 00:54:12;;;;;;;13.95;12.57;;;16.40;99.90;;;;;;2097366;28;20099;-69
2021/07/03 00:55:16;;;;;;;14.30;12.80;;;16.40;99.90;;;;;;2089574;28;20047;-70
2021/07/03 00:56:17;;;;;;;12.80;11.48;;;16.40;99.90;;;;;;2089843;28;20104;-69
2021/07/03 00:57:17;;;;;;;13.75;12.35;;;16.40;99.90;;;;;;2089680;28;20036;-69
2021/07/03 00:58:18;;;;;;;12.88;11.15;;;16.30;99.90;;;;;;2089704;28;20075;-70
2021/07/03 00:59:18;;;;;;;14.57;12.05;;;16.30;99.90;;;;;;2089612;28;20025;-70
2021/07/03 01:00:21;;;;;;;14.02;12.63;;;16.30;99.90;;;;;;2090410;28;20031;-69
2021/07/03 01:01:21;;;;;;;14.77;12.00;;;16.30;99.90;;;;;;2089560;28;20025;-69
2021/07/03 01:02:22;;;;;;;13.98;11.73;;;16.30;99.90;;;;;;2089221;28;20036;-69
2021/07/03 01:03:23;;;;;;;14.73;13.20;;;16.30;99.90;;;;;;2089463;28;20511;-69
2021/07/03 01:04:23;;;;;;;15.23;13.63;;;16.30;99.90;;;;;;2089809;28;20033;-69
2021/07/03 01:05:24;;;;;;;17.67;14.55;;;16.30;99.90;;;;;;2089514;28;20074;-69
2021/07/03 01:06:25;;;;;;;14.77;13.10;;;16.30;99.90;;;;;;2089861;28;20091;-69
2021/07/03 01:07:25;;;;;;;13.68;12.25;;;16.30;99.90;;;;;;2089573;28;20025;-69
2021/07/03 01:08:26;;;;;;;16.67;13.02;;;16.30;99.90;;;;;;2089567;28;20025;-69
2021/07/03 01:09:26;;;;;;;15.20;13.63;;;16.30;99.90;;;;;;2085189;28;20439;-69
2021/07/03 01:10:29;;;;;;;14.07;12.60;;;16.20;99.90;;;;;;2097173;28;20111;-69
2021/07/03 01:11:30;;;;;;;18.50;12.57;;;16.20;99.90;;;;;;2096599;28;20047;-69
2021/07/03 01:12:31;;;;;;;14.88;13.27;;;16.20;99.90;;;;;;2089703;28;20029;-69
2021/07/03 01:13:31;;;;;;;15.15;12.35;;;16.20;99.90;;;;;;2089540;28;20021;-69
2021/07/03 01:14:32;;;;;;;13.80;12.30;;;16.20;99.90;;;;;;2089853;28;20064;-69
2021/07/03 01:15:33;;;;;;;14.23;12.73;;;16.20;99.90;;;;;;2089538;28;20437;-69
2021/07/03 01:16:34;;;;;;;14.05;12.60;;;16.20;99.90;;;;;;2089611;28;20025;-69
2021/07/03 01:17:34;;;;;;;15.32;13.35;;;16.20;99.90;;;;;;2089366;28;20056;-69
2021/07/03 01:18:35;;;;;;;14.40;12.90;;;16.10;99.90;;;;;;2089864;28;20444;-69
2021/07/03 01:19:36;;;;;;;15.25;13.65;;;16.10;99.90;;;;;;2088931;28;20029;-69
2021/07/03 01:20:36;;;;;;;17.10;12.88;;;16.10;99.90;;;;;;2089595;28;20127;-69
2021/07/03 01:21:38;;;;;;;14.60;12.85;;;16.10;99.90;;;;;;2088781;28;20116;-69
2021/07/03 01:22:40;;;;;;;15.05;12.85;;;16.10;99.90;;;;;;2089810;28;20657;-69
2021/07/03 01:23:41;;;;;;;16.15;13.55;;;16.10;99.90;;;;;;2089389;28;20032;-69
2021/07/03 01:24:42;;;;;;;14.52;12.52;;;16.10;99.90;;;;;;2089545;28;20021;-69
2021/07/03 01:25:43;;;;;;;15.05;11.48;;;16.10;99.90;;;;;;2089503;28;20420;-69
2021/07/03 01:26:46;;;;;;;16.92;13.25;;;16.10;99.90;;;;;;2096994;28;20074;-69
2021/07/03 01:27:59;;;;;;;13.38;12.13;;;16.10;99.90;;;;;;2096670;28;20020;-69
2021/07/03 01:29:00;;;;;;;12.55;11.32;;;16.10;99.90;;;;;;2089482;28;20021;-69
2021/07/03 01:30:01;;;;;;;15.15;13.63;;;16.00;99.90;;;;;;2089278;28;20032;-69
2021/07/03 01:31:02;;;;;;;15.50;14.00;;;16.00;99.90;;;;;;2089644;28;20021;-69
2021/07/03 01:32:03;;;;;;;15.07;13.55;;;16.00;99.90;;;;;;2088953;28;20064;-69
2021/07/03 01:33:04;;;;;;;17.65;14.25;;;16.00;99.90;;;;;;2089310;28;20506;-69
2021/07/03 01:34:05;;;;;;;18.38;14.30;;;16.00;99.90;;;;;;2089468;28;20037;-69
2021/07/03 01:35:06;;;;;;;15.55;13.38;;;16.00;99.90;;;;;;2089376;28;20024;-69
2021/07/03 01:36:06;;;;;;;15.57;13.98;;;16.00;99.90;;;;;;2089251;28;20024;-69
2021/07/03 01:37:07;;;;;;;14.98;13.38;;;16.00;99.90;;;;;;2089662;28;20021;-69
2021/07/03 01:38:08;;;;;;;16.77;14.02;;;15.90;99.90;;;;;;2089392;28;20107;-69
2021/07/03 01:39:09;;;;;;;15.20;13.60;;;16.00;99.90;;;;;;2089517;28;20018;-69
2021/07/03 01:40:11;;;;;;;14.55;12.63;;;16.00;99.90;;;;;;2089108;28;20024;-69
2021/07/03 01:41:11;;;;;;;12.88;11.60;;;15.90;99.90;;;;;;2089565;28;20535;-69
2021/07/03 01:42:13;;;;;;;15.98;14.38;;;15.90;99.90;;;;;;2088895;28;20375;-69
2021/07/03 01:43:21;;;;;;;14.30;12.77;;;16.00;99.90;;;;;;2089523;28;20024;-69
2021/07/03 01:44:24;;;;;;;15.30;13.80;;;15.90;99.90;;;;;;2089324;28;20028;-69
2021/07/03 01:45:25;;;;;;;20.55;16.40;;;15.90;99.90;;;;;;2089312;28;20055;-69
2021/07/03 01:46:26;;;;;;;22.50;18.48;;;15.90;99.90;;;;;;2089376;28;20024;-69
2021/07/03 01:47:26;;;;;;;22.05;19.23;;;15.90;99.90;;;;;;2089846;28;20360;-69
2021/07/03 01:48:29;;;;;;;20.90;18.70;;;15.90;99.90;;;;;;2089374;28;20047;-69
2021/07/03 01:49:36;;;;;;;22.17;19.45;;;15.90;99.90;;;;;;2089194;28;20021;-69
2021/07/03 01:50:36;;;;;;;17.65;15.77;;;15.90;99.90;;;;;;2086955;28;20013;-69
2021/07/03 01:51:37;;;;;;;18.00;15.38;;;15.90;99.90;;;;;;2080593;28;20018;-69
2021/07/03 01:52:38;;;;;;;16.20;14.10;;;15.90;99.90;;;;;;2088523;28;20064;-69
2021/07/03 01:53:39;;;;;;;16.25;14.70;;;15.90;99.90;;;;;;2088905;28;20018;-69
2021/07/03 01:54:39;;;;;;;16.42;14.07;;;15.90;99.90;;;;;;2080806;28;20021;-69
2021/07/03 01:55:40;;;;;;;20.33;17.65;;;15.90;99.90;;;;;;2085377;28;20127;-69
2021/07/03 01:56:45;;;;;;;17.40;15.60;;;15.90;99.90;;;;;;2089448;28;20036;-69
2021/07/03 01:57:45;;;;;;;19.75;17.23;;;15.90;99.90;;;;;;2089209;28;20017;-69
2021/07/03 01:58:46;;;;;;;17.63;15.23;;;15.90;99.90;;;;;;2097081;28;20070;-69
2021/07/03 01:59:47;;;;;;;19.05;17.08;;;15.90;99.90;;;;;;2096786;28;20024;-69
2021/07/03 02:00:49;;;;;;;17.30;15.02;;;15.90;99.90;;;;;;2089330;28;20029;-69
2021/07/03 02:01:49;;;;;;;20.13;18.05;;;15.90;99.90;;;;;;2088753;28;20024;-69
2021/07/03 02:02:50;;;;;;;19.65;16.35;;;15.90;99.90;;;;;;2089217;28;20025;-69
2021/07/03 02:03:50;;;;;;;17.48;15.68;;;15.90;99.90;;;;;;2089096;28;20048;-69
2021/07/03 02:04:51;;;;;;;18.90;16.85;;;15.90;99.90;;;;;;2089354;28;20025;-69
2021/07/03 02:05:53;;;;;;;20.38;18.27;;;15.90;99.90;;;;;;2089091;28;20025;-69
2021/07/03 02:06:54;;;;;;;20.80;18.50;;;15.90;99.90;;;;;;2089571;28;20029;-69
2021/07/03 02:07:54;;;;;;;20.70;18.45;;;15.90;99.90;;;;;;2089226;28;20048;-69
2021/07/03 02:08:55;;;;;;;22.38;19.65;;;15.90;99.90;;;;;;2089346;28;20040;-69
2021/07/03 02:09:56;;;;;;;23.00;19.27;;;15.90;99.90;;;;;;2089318;28;20029;-69
2021/07/03 02:10:57;;;;;;;18.70;16.60;;;15.90;99.90;;;;;;2089412;28;20104;-69
2021/07/03 02:11:58;;;;;;;16.63;14.93;;;15.90;99.90;;;;;;2088313;28;20052;-69
2021/07/03 02:12:58;;;;;;;15.65;14.05;;;15.90;99.90;;;;;;2089270;28;20036;-69
2021/07/03 02:13:59;;;;;;;21.23;16.10;;;15.90;99.90;;;;;;2089284;28;20025;-69
2021/07/03 02:14:59;;;;;;;15.20;13.57;;;15.90;99.90;;;;;;2089327;28;20029;-69
2021/07/03 02:16:00;;;;;;;17.85;15.05;;;15.90;99.90;;;;;;2088873;28;20029;-69
2021/07/03 02:17:00;;;;;;;19.23;14.68;;;15.90;99.90;;;;;;2089393;28;20020;-69
2021/07/03 02:18:02;;;;;;;17.95;16.08;;;15.90;99.90;;;;;;2089249;28;20028;-69
2021/07/03 02:19:06;;;;;;;15.52;13.88;;;15.90;99.90;;;;;;2089403;28;20052;-69
2021/07/03 02:20:08;;;;;;;17.45;15.48;;;15.90;99.90;;;;;;2088809;28;20025;-69
2021/07/03 02:21:08;;;;;;;16.77;15.07;;;15.90;99.90;;;;;;2089431;28;20017;-69
2021/07/03 02:22:09;;;;;;;16.67;13.80;;;15.90;99.90;;;;;;2088563;28;20023;-69
2021/07/03 02:23:10;;;;;;;16.77;15.10;;;15.90;99.90;;;;;;2089310;28;20033;-69
2021/07/03 02:24:10;;;;;;;16.02;14.30;;;15.90;99.90;;;;;;2088236;28;20125;-69
2021/07/03 02:25:11;;;;;;;15.50;13.68;;;15.90;99.90;;;;;;2088691;28;20049;-69
2021/07/03 02:26:12;;;;;;;15.52;13.93;;;15.90;99.90;;;;;;2089067;28;20091;-69
2021/07/03 02:27:13;;;;;;;13.88;12.27;;;15.90;99.90;;;;;;2089389;28;20067;-69
2021/07/03 02:28:14;;;;;;;15.50;13.52;;;15.90;99.90;;;;;;2089284;28;20056;-69
2021/07/03 02:29:15;;;;;;;16.95;15.35;;;15.80;99.90;;;;;;2089412;28;20028;-69
2021/07/03 02:30:16;;;;;;;15.70;14.18;;;15.90;99.90;;;;;;2088375;28;20059;-69
2021/07/03 02:31:17;;;;;;;17.80;15.73;;;15.80;99.90;;;;;;2088309;28;20039;-69
2021/07/03 02:32:18;;;;;;;14.90;13.40;;;15.90;99.90;;;;;;2089047;28;20028;-69
2021/07/03 02:33:18;;;;;;;18.77;15.38;;;15.80;99.90;;;;;;2090339;28;20100;-69
2021/07/03 02:34:19;;;;;;;17.92;16.17;;;15.90;99.90;;;;;;2090845;28;20025;-69
2021/07/03 02:35:20;;;;;;;16.65;14.82;;;15.90;99.90;;;;;;2090946;28;20037;-69
2021/07/03 02:36:21;;;;;;;18.08;15.35;;;15.80;99.90;;;;;;2090613;28;20017;-69
2021/07/03 02:37:21;;;;;;;23.27;18.92;;;15.80;99.90;;;;;;2091096;28;20025;-69
2021/07/03 02:38:22;;;;;;;15.32;13.82;;;15.80;99.90;;;;;;2090669;28;20087;-69
2021/07/03 02:39:22;;;;;;;15.77;14.20;;;15.80;99.90;;;;;;2090649;28;20352;-69
2021/07/03 02:40:23;;;;;;;18.00;16.13;;;15.80;99.90;;;;;;2091014;28;20021;-69
2021/07/03 02:41:24;;;;;;;15.52;13.93;;;15.80;99.90;;;;;;2090342;28;20078;-69
2021/07/03 02:42:25;;;;;;;15.45;13.85;;;15.80;99.90;;;;;;2090382;28;20025;-69
2021/07/03 02:43:25;;;;;;;19.77;15.63;;;15.80;99.90;;;;;;2090689;28;20021;-69
2021/07/03 02:44:26;;;;;;;16.60;14.93;;;15.80;99.90;;;;;;2090979;28;20031;-69
2021/07/03 02:45:26;;;;;;;16.83;14.57;;;15.80;99.90;;;;;;2090744;28;20108;-69
2021/07/03 02:46:27;;;;;;;18.33;16.45;;;15.80;99.90;;;;;;2090826;28;20472;-69
2021/07/03 02:47:28;;;;;;;18.45;16.55;;;15.80;99.90;;;;;;2090647;28;20025;-69
2021/07/03 02:48:28;;;;;;;19.63;17.60;;;15.80;99.90;;;;;;2090842;28;20033;-69
2021/07/03 02:49:29;;;;;;;18.58;13.60;;;15.80;99.90;;;;;;2090636;28;20518;-69
2021/07/03 02:50:29;;;;;;;16.58;14.93;;;15.80;99.90;;;;;;2090728;28;20107;-69
2021/07/03 02:51:30;;;;;;;17.30;15.50;;;15.80;99.90;;;;;;2090182;28;20156;-69
2021/07/03 02:52:31;;;;;;;16.45;14.80;;;15.80;99.90;;;;;;2090621;28;20024;-69
2021/07/03 02:53:31;;;;;;;17.02;14.70;;;15.80;99.90;;;;;;2090557;28;20373;-69
2021/07/03 02:54:32;;;;;;;16.55;14.88;;;15.80;99.90;;;;;;2090835;28;20028;-69
2021/07/03 02:55:32;;;;;;;16.65;14.88;;;15.80;99.90;;;;;;2090602;28;20116;-69
2021/07/03 02:56:33;;;;;;;19.17;15.88;;;15.80;99.90;;;;;;2090954;28;20056;-69
2021/07/03 02:57:34;;;;;;;17.38;15.57;;;15.80;99.90;;;;;;2090434;28;20440;-69
2021/07/03 02:58:35;;;;;;;16.75;15.05;;;15.80;99.90;;;;;;2090838;28;20027;-69
2021/07/03 02:59:35;;;;;;;18.33;15.45;;;15.70;99.90;;;;;;2090679;28;20025;-69
2021/07/03 03:00:36;;;;;;;18.25;15.02;;;15.80;99.90;;;;;;2090415;28;20034;-69
2021/07/03 03:01:36;;;;;;;18.13;15.50;;;15.80;99.90;;;;;;2090040;28;20530;-69
2021/07/03 03:02:37;;;;;;;16.33;14.05;;;15.70;99.90;;;;;;2090683;28;20116;-69
2021/07/03 03:03:42;;;;;;;17.83;15.40;;;15.70;99.90;;;;;;2090471;28;20020;-69
2021/07/03 03:04:42;;;;;;;16.15;14.55;;;15.70;99.90;;;;;;2090648;28;20087;-69
2021/07/03 03:05:43;;;;;;;15.82;13.77;;;15.70;99.90;;;;;;2090389;28;20029;-69
2021/07/03 03:06:44;;;;;;;16.88;14.35;;;15.70;99.90;;;;;;2090759;28;20021;-69
2021/07/03 03:07:45;;;;;;;16.27;14.57;;;15.70;99.90;;;;;;2090528;28;20114;-69
2021/07/03 03:08:45;;;;;;;16.10;14.38;;;15.70;99.90;;;;;;2090430;28;20025;-69
2021/07/03 03:09:46;;;;;;;15.60;14.00;;;15.70;99.90;;;;;;2090642;28;20053;-69
2021/07/03 03:10:47;;;;;;;17.52;15.75;;;15.70;99.90;;;;;;2089891;28;20075;-69
2021/07/03 03:11:47;;;;;;;17.48;15.77;;;15.70;99.90;;;;;;2089341;28;20051;-69
2021/07/03 03:12:48;;;;;;;16.30;13.85;;;15.60;99.90;;;;;;2090536;28;20024;-69
2021/07/03 03:13:49;;;;;;;16.50;14.48;;;15.60;99.90;;;;;;2090780;28;20026;-69
2021/07/03 03:14:50;;;;;;;15.55;13.90;;;15.60;99.90;;;;;;2090575;28;20029;-69
2021/07/03 03:15:50;;;;;;;17.70;13.93;;;15.60;99.90;;;;;;2090173;28;20056;-69
2021/07/03 03:16:52;;;;;;;16.75;14.35;;;15.60;99.90;;;;;;2090583;28;20052;-69
2021/07/03 03:17:52;;;;;;;16.33;14.63;;;15.60;99.90;;;;;;2090820;28;20040;-69
2021/07/03 03:18:54;;;;;;;16.52;14.75;;;15.60;99.90;;;;;;2090242;28;20088;-69
2021/07/03 03:19:55;;;;;;;16.33;14.70;;;15.60;99.90;;;;;;2090690;28;20025;-69
2021/07/03 03:20:55;;;;;;;15.45;13.60;;;15.60;99.90;;;;;;2090334;28;20033;-69
2021/07/03 03:21:56;;;;;;;15.38;13.77;;;15.60;99.90;;;;;;2089980;28;20021;-69
2021/07/03 03:22:56;;;;;;;19.27;14.60;;;15.50;99.90;;;;;;2090334;28;20360;-69
2021/07/03 03:23:57;;;;;;;16.58;14.75;;;15.50;99.90;;;;;;2090650;28;20044;-69
2021/07/03 03:24:57;;;;;;;15.93;14.25;;;15.50;99.90;;;;;;2090300;28;20396;-69
2021/07/03 03:25:58;;;;;;;16.50;14.25;;;15.50;99.90;;;;;;2090418;28;20025;-69
2021/07/03 03:26:58;;;;;;;15.73;14.13;;;15.50;99.90;;;;;;2090265;28;20029;-69
2021/07/03 03:27:59;;;;;;;18.95;14.15;;;15.50;99.90;;;;;;2090538;28;20438;-69
2021/07/03 03:29:00;;;;;;;15.52;13.95;;;15.50;99.90;;;;;;2090188;28;20086;-69
2021/07/03 03:30:01;;;;;;;21.40;15.45;;;15.50;99.90;;;;;;2090580;28;20110;-69
2021/07/03 03:31:02;;;;;;;14.77;13.13;;;15.50;99.90;;;;;;2090241;28;20033;-69
2021/07/03 03:32:03;;;;;;;15.05;13.57;;;15.50;99.90;;;;;;2090056;28;20106;-69
2021/07/03 03:33:04;;;;;;;16.25;13.48;;;15.40;99.90;;;;;;2090309;28;20025;-69
2021/07/03 03:34:04;;;;;;;18.33;14.75;;;15.50;99.90;;;;;;2090537;28;20018;-69
2021/07/03 03:35:05;;;;;;;16.08;14.38;;;15.40;99.90;;;;;;2090293;28;20055;-69
2021/07/03 03:36:06;;;;;;;18.75;15.25;;;15.40;99.90;;;;;;2090493;28;20027;-69
2021/07/03 03:37:06;;;;;;;15.60;14.10;;;15.40;99.90;;;;;;2090158;28;20029;-69
2021/07/03 03:38:07;;;;;;;15.63;14.00;;;15.40;99.90;;;;;;2090487;28;20023;-69
2021/07/03 03:39:07;;;;;;;16.92;15.13;;;15.40;99.90;;;;;;2090022;28;20408;-69
2021/07/03 03:40:09;;;;;;;15.70;14.02;;;15.40;99.90;;;;;;2090744;28;20406;-69
2021/07/03 03:41:10;;;;;;;16.52;14.25;;;15.40;99.90;;;;;;2090027;28;20025;-69
2021/07/03 03:42:10;;;;;;;18.63;16.45;;;15.40;99.90;;;;;;2090183;28;20491;-69
2021/07/03 03:43:11;;;;;;;17.05;15.20;;;15.40;99.90;;;;;;2090007;28;20037;-70
2021/07/03 03:44:11;;;;;;;16.48;14.70;;;15.40;99.90;;;;;;2090467;28;20387;-69
2021/07/03 03:45:12;;;;;;;15.60;13.63;;;15.40;99.90;;;;;;2090241;28;20029;-69
2021/07/03 03:46:13;;;;;;;16.88;15.07;;;15.40;99.90;;;;;;2090338;28;20400;-69
2021/07/03 03:47:14;;;;;;;15.18;13.57;;;15.30;99.90;;;;;;2090366;28;20029;-69
2021/07/03 03:48:15;;;;;;;15.85;13.90;;;15.40;99.90;;;;;;2090397;28;20071;-69
2021/07/03 03:49:15;;;;;;;20.48;16.05;;;15.40;99.90;;;;;;2089769;28;20037;-69
2021/07/03 03:50:16;;;;;;;17.73;15.93;;;15.40;99.90;;;;;;2090459;28;20057;-69
2021/07/03 03:51:16;;;;;;;16.58;14.60;;;15.40;99.90;;;;;;2090263;28;20033;-69
2021/07/03 03:52:17;;;;;;;18.15;14.55;;;15.30;99.90;;;;;;2089448;28;20033;-69
2021/07/03 03:53:17;;;;;;;17.27;15.15;;;15.40;99.90;;;;;;2090355;28;20051;-69
2021/07/03 03:54:18;;;;;;;14.88;13.25;;;15.40;99.90;;;;;;2090189;28;20028;-69
2021/07/03 03:55:19;;;;;;;16.73;15.05;;;15.40;99.90;;;;;;2090369;28;20021;-69
2021/07/03 03:56:19;;;;;;;15.30;13.77;;;15.40;99.90;;;;;;2089958;28;20029;-69
2021/07/03 03:57:32;;;;;;;16.83;15.10;;;15.40;99.90;;;;;;2090390;28;20025;-69
2021/07/03 03:58:33;;;;;;;19.40;15.43;;;15.40;99.90;;;;;;2090122;28;20032;-69
2021/07/03 03:59:33;;;;;;;20.00;16.42;;;15.30;99.90;;;;;;2090414;28;20033;-69
2021/07/03 04:00:34;;;;;;;19.25;15.13;;;15.40;99.90;;;;;;2090118;28;20388;-69
2021/07/03 04:01:34;;;;;;;17.42;14.32;;;15.40;99.90;;;;;;2089714;28;20017;-70
2021/07/03 04:02:35;;;;;;;16.17;14.57;;;15.40;99.90;;;;;;2090003;28;20025;-70
2021/07/03 04:03:36;;;;;;;17.00;15.13;;;15.40;99.90;;;;;;2090292;28;20535;-70
2021/07/03 04:04:36;;;;;;;16.30;14.70;;;15.40;99.90;;;;;;2090090;28;20029;-70
2021/07/03 04:05:37;;;;;;;16.70;14.88;;;15.50;99.90;;;;;;2090084;28;20372;-70
2021/07/03 04:06:37;;;;;;;19.80;16.23;;;15.50;99.90;;;;;;2089973;28;20130;-69
2021/07/03 04:07:38;;;;;;;17.00;15.20;;;15.50;99.90;;;;;;2090204;28;20044;-69
2021/07/03 04:08:39;;;;;;;19.17;15.57;;;15.50;99.90;;;;;;2090058;28;20091;-69
2021/07/03 04:09:39;;;;;;;17.35;14.93;;;15.60;99.90;;;;;;2090383;28;20086;-69
2021/07/03 04:10:40;;;;;;;17.15;15.38;;;15.60;99.90;;;;;;2090210;28;20024;-69
2021/07/03 04:11:40;;;;;;;18.83;16.30;;;15.60;99.90;;;;;;2089597;28;20020;-69
2021/07/03 04:12:42;;;;;;;15.98;14.27;;;15.70;99.90;;;;;;2089977;28;20550;-69
2021/07/03 04:13:42;;;;;;;17.35;15.52;;;15.70;99.90;;;;;;2090067;28;20044;-69
2021/07/03 04:14:43;;;;;;;16.27;14.52;;;15.70;99.90;;;;;;2090029;28;20025;-69
2021/07/03 04:15:44;;;;;;;17.42;15.52;;;15.70;99.90;;;;;;2089844;28;20025;-69
2021/07/03 04:16:45;;;;;;;19.23;16.65;;;15.80;99.90;;;;;;2089880;28;20013;-69
2021/07/03 04:17:45;;;;;;;19.60;17.50;;;15.90;99.90;;;;;;2090194;28;20024;-69
2021/07/03 04:18:46;;;;;;;18.50;14.35;;;16.10;99.90;;;;;;2090027;28;21072;-69
2021/07/03 04:19:46;;;;;;;16.63;14.77;;;16.20;99.90;;;;;;2090164;28;20024;-69
2021/07/03 04:20:47;;;;;;;18.30;15.80;;;16.30;99.90;;;;;;2090026;28;20468;-69
2021/07/03 04:21:47;;;;;;;19.45;16.00;;;16.50;99.90;;;;;;2089622;28;20024;-69
2021/07/03 04:22:48;;;;;;;16.98;14.75;;;16.70;99.90;;;;;;2089789;28;20056;-69
2021/07/03 04:23:48;;;;;;;17.33;15.50;;;16.90;99.90;;;;;;2090057;28;20083;-69
2021/07/03 04:24:49;;;;;;;17.83;15.18;;;17.10;99.90;;;;;;2089840;28;20358;-69
2021/07/03 04:25:50;;;;;;;27.52;18.33;;;17.30;99.90;;;;;;2089894;28;20027;-69
2021/07/03 04:26:51;;;;;;;23.00;20.33;;;17.40;99.90;;;;;;2089831;28;20553;-70
2021/07/03 04:27:52;;;;;;;24.20;19.55;;;17.60;99.90;;;;;;2090021;28;20122;-70
2021/07/03 04:28:52;;;;;;;26.75;18.88;;;17.80;99.90;;;;;;2089936;28;20029;-70
2021/07/03 04:29:53;;;;;;;24.77;20.95;;;17.90;99.90;;;;;;2090187;28;20032;-70
2021/07/03 04:30:53;;;;;;;22.35;19.33;;;18.00;99.90;;;;;;2089918;28;20029;-70
2021/07/03 04:31:54;;;;;;;24.88;20.25;;;18.10;99.90;;;;;;2089058;28;20392;-70
2021/07/03 04:32:56;;;;;;;22.42;19.90;;;18.10;99.90;;;;;;2089899;28;20029;-70
2021/07/03 04:33:57;;;;;;;21.55;19.10;;;18.10;99.90;;;;;;2089882;28;20403;-69
2021/07/03 04:34:58;;;;;;;25.88;20.58;;;18.10;99.90;;;;;;2090023;28;20037;-69
2021/07/03 04:35:58;;;;;;;21.50;18.98;;;18.10;99.90;;;;;;2089823;28;20032;-69
2021/07/03 04:36:59;;;;;;;21.35;17.20;;;18.10;99.90;;;;;;2090061;28;20049;-69
2021/07/03 04:38:00;;;;;;;18.55;16.00;;;18.10;99.90;;;;;;2089644;28;20017;-69
2021/07/03 04:39:01;;;;;;;18.25;14.95;;;18.10;99.90;;;;;;2089833;28;20036;-69
2021/07/03 04:40:03;;;;;;;18.33;15.88;;;18.10;99.90;;;;;;2089993;28;20025;-69
2021/07/03 04:41:04;;;;;;;18.48;16.60;;;18.10;99.90;;;;;;2090194;28;20047;-69
2021/07/03 04:42:05;;;;;;;17.50;15.70;;;18.20;99.90;;;;;;2089104;28;20021;-70
2021/07/03 04:43:05;;;;;;;18.00;14.80;;;18.20;99.90;;;;;;2089947;28;20021;-69
2021/07/03 04:44:06;;;;;;;18.92;15.95;;;18.20;99.90;;;;;;2089612;28;20029;-69
2021/07/03 04:45:07;;;;;;;18.92;15.52;;;18.30;99.90;;;;;;2089979;28;20025;-69
2021/07/03 04:46:08;;;;;;;18.63;16.70;;;18.30;99.90;;;;;;2089522;28;20406;-69
2021/07/03 04:47:08;;;;;;;20.17;17.98;;;18.40;99.90;;;;;;2089832;28;20025;-69
2021/07/03 04:48:09;;;;;;;19.58;17.48;;;18.40;99.90;;;;;;2089768;28;20040;-69
2021/07/03 04:49:09;;;;;;;18.83;15.90;;;18.40;99.90;;;;;;2089911;28;20063;-69
2021/07/03 04:50:11;;;;;;;17.30;15.30;;;18.40;99.90;;;;;;2089785;28;20488;-69
2021/07/03 04:51:11;;;;;;;16.85;15.05;;;18.50;99.90;;;;;;2089873;28;20476;-69
2021/07/03 04:52:12;;;;;;;17.48;15.68;;;18.50;99.90;;;;;;2089146;28;20070;-69
2021/07/03 04:53:12;;;;;;;16.10;14.50;;;18.50;99.90;;;;;;2097355;28;20035;-69
2021/07/03 04:54:13;;;;;;;16.35;14.35;;;18.50;99.90;;;;;;2096909;28;20039;-69
2021/07/03 04:55:14;;;;;;;14.32;12.93;;;18.60;99.90;;;;;;2089406;28;20049;-69
2021/07/03 04:56:14;;;;;;;18.55;14.82;;;18.60;99.90;;;;;;2089418;28;20102;-68
2021/07/03 04:57:15;;;;;;;18.15;14.27;;;18.60;99.90;;;;;;2089787;28;20017;-70
2021/07/03 04:58:15;;;;;;;15.45;13.88;;;18.70;99.90;;;;;;2089807;28;20021;-69
2021/07/03 04:59:16;;;;;;;15.13;13.52;;;18.70;99.90;;;;;;2090109;28;20024;-69
2021/07/03 05:00:17;;;;;;;15.90;14.40;;;18.70;99.90;;;;;;2089715;28;20028;-70
2021/07/03 05:01:17;;;;;;;15.82;14.02;;;18.80;99.90;;;;;;2089826;28;20013;-70
2021/07/03 05:02:18;;;;;;;14.52;12.75;;;18.80;99.90;;;;;;2088959;28;20096;-70
2021/07/03 05:03:19;;;;;;;15.82;14.20;;;18.80;99.90;;;;;;2089896;28;20098;-69
2021/07/03 05:04:19;;;;;;;16.52;14.90;;;18.90;99.90;;;;;;2089317;28;20049;-69
2021/07/03 05:05:20;;;;;;;17.85;15.05;;;18.90;99.90;;;;;;2089741;28;20052;-69
2021/07/03 05:06:21;;;;;;;16.80;15.13;;;19.00;99.90;;;;;;2089539;28;20062;-69
2021/07/03 05:07:21;;;;;;;15.63;14.07;;;19.00;99.90;;;;;;2089627;28;20024;-69
2021/07/03 05:08:22;;;;;;;16.17;14.60;;;19.10;99.90;;;;;;2089693;28;20052;-69
2021/07/03 05:09:23;;;;;;;18.95;15.70;;;19.20;99.90;;;;;;2089698;28;20141;-70